Time;durP1;ratioP1;P1;durP2;ratioP2;P2;SDS_P1;SDS_P2;PMS_P1;PMS_P2;Temp;Humidity;BMP_temperature;BMP_pressure;BME280_temperature;BME280_humidity;BME280_pressure;Samples;Min_cycle;Max_cycle;Signal;HPM_P1;HPM_P2
2023/09/01 00:00:50;;;;;;;1.70;1.60;;;;;;;14.96;100.00;97806.63;1226507;75;2912594;-68
2023/09/01 00:03:22;;;;;;;1.80;1.40;;;;;;;15.37;100.00;97808.06;1226541;75;2909440;-67
2023/09/01 00:05:55;;;;;;;1.35;1.25;;;;;;;15.26;100.00;97811.59;1226888;75;2913585;-68
2023/09/01 00:08:28;;;;;;;2.10;1.50;;;;;;;15.21;100.00;97823.41;1226115;75;2915951;-67
2023/09/01 00:11:00;;;;;;;2.00;1.20;;;;;;;15.45;100.00;97820.09;1226570;75;2918901;-67
2023/09/01 00:13:35;;;;;;;1.35;1.00;;;;;;;15.53;100.00;97812.78;1226999;75;2912240;-67
2023/09/01 00:16:08;;;;;;;1.05;0.95;;;;;;;15.61;100.00;97821.28;1226760;75;2916536;-67
2023/09/01 00:18:41;;;;;;;0.80;0.80;;;;;;;15.52;100.00;97812.03;1226192;75;2911691;-70
2023/09/01 00:21:13;;;;;;;2.75;0.70;;;;;;;15.51;100.00;97818.06;1226010;75;2918551;-70
2023/09/01 00:23:46;;;;;;;1.05;0.85;;;;;;;15.36;100.00;97823.88;1225202;75;2921124;-69
2023/09/01 00:26:19;;;;;;;1.20;1.10;;;;;;;15.34;100.00;97823.63;1224904;75;2925456;-67
2023/09/01 00:28:54;;;;;;;1.70;1.30;;;;;;;15.38;100.00;97826.13;1225085;75;2920415;-67
2023/09/01 00:31:26;;;;;;;1.85;1.20;;;;;;;15.42;100.00;97829.38;1225724;75;2920279;-67
2023/09/01 00:33:59;;;;;;;1.10;1.00;;;;;;;15.42;100.00;97824.63;1226313;75;2921603;-67
2023/09/01 00:36:31;;;;;;;1.00;0.90;;;;;;;15.40;100.00;97809.81;1226127;75;2917276;-67
2023/09/01 00:39:04;;;;;;;1.00;0.90;;;;;;;15.38;100.00;97813.09;1226379;75;2909589;-70
2023/09/01 00:41:37;;;;;;;1.00;0.90;;;;;;;15.43;100.00;97801.28;1225753;75;2937791;-68
2023/09/01 00:44:13;;;;;;;0.70;0.70;;;;;;;15.44;100.00;97794.53;1225841;75;2916437;-67
2023/09/01 00:46:47;;;;;;;0.95;0.85;;;;;;;15.41;100.00;97801.03;1226608;75;2915512;-68
2023/09/01 00:49:20;;;;;;;0.75;0.60;;;;;;;15.30;100.00;97812.84;1225125;75;2921611;-67
2023/09/01 00:51:53;;;;;;;1.95;0.70;;;;;;;15.20;100.00;97808.84;1226065;75;2912539;-65
2023/09/01 00:54:26;;;;;;;0.65;0.60;;;;;;;15.17;100.00;97798.81;1226886;75;2914059;-65
2023/09/01 00:56:59;;;;;;;2.65;1.00;;;;;;;15.22;100.00;97795.28;1226377;75;2915713;-68
2023/09/01 00:59:34;;;;;;;0.95;0.70;;;;;;;15.08;100.00;97807.34;1226007;75;2912884;-68
2023/09/01 01:02:08;;;;;;;0.75;0.60;;;;;;;15.11;100.00;97796.06;1225396;75;2913565;-67
2023/09/01 01:04:40;;;;;;;1.00;0.90;;;;;;;15.10;100.00;97805.63;1225191;75;2915183;-68
2023/09/01 01:07:24;;;;;;;0.80;0.80;;;;;;;15.06;100.00;97807.88;1225767;75;2916811;-69
2023/09/01 01:10:06;;;;;;;0.85;0.80;;;;;;;14.79;100.00;97817.66;1225851;75;2914333;-66
2023/09/01 01:12:52;;;;;;;1.15;0.90;;;;;;;14.85;100.00;97825.91;1225674;75;2917416;-67
2023/09/01 01:15:32;;;;;;;1.10;1.00;;;;;;;14.99;100.00;97835.94;1225366;75;2916040;-66
2023/09/01 01:18:11;;;;;;;1.30;1.10;;;;;;;14.67;100.00;97829.88;1226273;75;2910796;-67
2023/09/01 01:20:49;;;;;;;1.10;1.00;;;;;;;14.68;100.00;97832.16;1224625;75;2921417;-68
2023/09/01 01:23:26;;;;;;;1.50;1.30;;;;;;;14.47;100.00;97830.84;1226562;75;2915375;-66
2023/09/01 01:25:58;;;;;;;1.95;1.40;;;;;;;14.41;100.00;97827.34;1225469;75;2915922;-69
2023/09/01 01:28:31;;;;;;;2.25;1.25;;;;;;;14.64;100.00;97819.88;1225467;75;2918242;-64
2023/09/01 01:31:04;;;;;;;1.05;0.95;;;;;;;14.68;100.00;97823.88;1225472;75;2912303;-65
2023/09/01 01:33:49;;;;;;;1.10;1.00;;;;;;;14.62;100.00;97814.09;1224674;75;2913917;-66
2023/09/01 01:36:32;;;;;;;0.70;0.70;;;;;;;14.74;100.00;97820.38;1225927;75;2922688;-67
2023/09/01 01:39:12;;;;;;;2.85;0.70;;;;;;;14.76;100.00;97828.91;1226009;75;2920728;-65
2023/09/01 01:41:55;;;;;;;0.70;0.70;;;;;;;14.74;100.00;97823.13;1225442;75;2916784;-66
2023/09/01 01:44:33;;;;;;;0.55;0.55;;;;;;;14.73;100.00;97825.16;1225964;75;2916993;-66
2023/09/01 01:47:07;;;;;;;1.50;0.90;;;;;;;14.75;100.00;97832.94;1225741;75;2919620;-66
2023/09/01 01:49:40;;;;;;;0.95;0.70;;;;;;;14.65;100.00;97827.66;1225804;75;2913763;-68
2023/09/01 01:52:13;;;;;;;0.70;0.60;;;;;;;14.67;100.00;97830.66;1226239;75;2914170;-66
2023/09/01 01:54:48;;;;;;;0.65;0.65;;;;;;;14.69;100.00;97838.41;1226079;75;2914080;-68
2023/09/01 01:57:21;;;;;;;2.15;0.80;;;;;;;14.58;100.00;97833.66;1224913;75;2921346;-66
2023/09/01 01:59:54;;;;;;;0.80;0.80;;;;;;;14.72;100.00;97842.94;1224907;75;2932846;-66
2023/09/01 02:02:26;;;;;;;0.90;0.75;;;;;;;14.72;100.00;97833.91;1225677;75;2917070;-66
2023/09/01 02:04:59;;;;;;;1.00;0.90;;;;;;;14.55;100.00;97818.13;1225167;75;2918520;-67
2023/09/01 02:07:32;;;;;;;0.90;0.80;;;;;;;14.49;100.00;97823.56;1221576;75;3099794;-68
2023/09/01 02:10:08;;;;;;;1.30;0.90;;;;;;;14.37;100.00;97819.28;1225466;75;2918059;-65
2023/09/01 02:12:41;;;;;;;1.15;0.85;;;;;;;14.48;100.00;97819.31;1225515;75;2920200;-65
2023/09/01 02:15:14;;;;;;;0.95;0.85;;;;;;;14.23;100.00;97823.00;1226270;75;2916173;-64
2023/09/01 02:17:47;;;;;;;1.20;1.00;;;;;;;14.30;100.00;97822.53;1225773;75;2919094;-70
2023/09/01 02:20:19;;;;;;;1.05;0.95;;;;;;;14.24;100.00;97828.03;1224534;75;2918583;-69
2023/09/01 02:22:53;;;;;;;1.05;0.90;;;;;;;14.34;100.00;97823.06;1225990;75;2918821;-67
2023/09/01 02:25:28;;;;;;;1.25;0.90;;;;;;;14.22;100.00;97821.53;1223884;75;2918113;-65
2023/09/01 02:28:04;;;;;;;1.25;0.80;;;;;;;14.22;100.00;97825.03;1225163;75;2913787;-64
2023/09/01 02:30:36;;;;;;;1.10;1.00;;;;;;;14.20;100.00;97835.03;1225636;75;2916652;-69
2023/09/01 02:33:10;;;;;;;0.85;0.80;;;;;;;14.27;100.00;97838.06;1225238;75;2923369;-70
2023/09/01 02:35:47;;;;;;;1.15;1.05;;;;;;;14.26;100.00;97836.56;1225947;75;2915688;-67
2023/09/01 02:38:19;;;;;;;1.70;1.00;;;;;;;14.10;100.00;97836.50;1225541;75;2918084;-69
2023/09/01 02:40:54;;;;;;;1.15;1.05;;;;;;;14.09;100.00;97834.97;1224404;75;2922000;-66
2023/09/01 02:43:27;;;;;;;1.15;0.90;;;;;;;14.23;100.00;97829.28;1224865;75;2917754;-66
2023/09/01 02:45:59;;;;;;;2.15;1.30;;;;;;;14.09;100.00;97830.22;1225110;75;2920691;-67
2023/09/01 02:48:32;;;;;;;1.05;0.95;;;;;;;14.17;100.00;97828.50;1224810;75;2918540;-64
2023/09/01 02:51:05;;;;;;;1.35;1.20;;;;;;;14.15;100.00;97831.00;1224458;75;2925190;-67
2023/09/01 02:53:38;;;;;;;1.00;0.90;;;;;;;14.30;100.00;97835.56;1224457;75;2923071;-70
2023/09/01 02:56:13;;;;;;;0.80;0.80;;;;;;;14.35;100.00;97832.06;1224839;75;2926874;-64
2023/09/01 02:58:46;;;;;;;0.70;0.70;;;;;;;14.38;100.00;97839.31;1224297;75;2919393;-65
2023/09/01 03:01:18;;;;;;;1.00;0.90;;;;;;;14.28;100.00;97834.03;1224437;75;2922312;-65
2023/09/01 03:03:51;;;;;;;1.65;1.20;;;;;;;14.19;100.00;97828.78;1225119;75;2935070;-65
2023/09/01 03:06:24;;;;;;;1.15;0.70;;;;;;;14.34;100.00;97825.81;1225138;75;2918151;-66
2023/09/01 03:08:56;;;;;;;1.10;0.80;;;;;;;14.40;100.00;97834.06;1224898;75;2918920;-67
2023/09/01 03:11:31;;;;;;;0.80;0.70;;;;;;;14.35;100.00;97843.06;1224081;75;2919165;-65
2023/09/01 03:14:04;;;;;;;1.05;0.90;;;;;;;14.28;100.00;97847.06;1224370;75;2919269;-66
2023/09/01 03:16:37;;;;;;;1.40;1.20;;;;;;;14.32;100.00;97836.56;1223863;75;2924727;-67
2023/09/01 03:19:09;;;;;;;1.25;1.10;;;;;;;14.51;100.00;97838.88;1224840;75;2922832;-69
2023/09/01 03:21:42;;;;;;;0.85;0.80;;;;;;;14.53;100.00;97847.38;1224254;75;2920391;-67
2023/09/01 03:24:15;;;;;;;0.75;0.70;;;;;;;14.56;100.00;97838.91;1224655;75;2925302;-65
2023/09/01 03:26:50;;;;;;;0.70;0.70;;;;;;;14.57;100.00;97840.38;1224563;75;2922717;-65
2023/09/01 03:29:22;;;;;;;0.70;0.60;;;;;;;14.61;100.00;97837.41;1224839;75;2918892;-65
2023/09/01 03:31:55;;;;;;;0.70;0.60;;;;;;;14.61;100.00;97837.41;1223876;75;2922494;-67
2023/09/01 03:34:30;;;;;;;1.30;0.75;;;;;;;14.68;100.00;97834.91;1224250;75;2923297;-66
2023/09/01 03:37:02;;;;;;;0.70;0.70;;;;;;;14.61;100.00;97829.88;1225482;75;2919928;-67
2023/09/01 03:39:35;;;;;;;0.80;0.80;;;;;;;14.65;100.00;97833.16;1223898;75;2921596;-65
2023/09/01 03:42:10;;;;;;;0.90;0.90;;;;;;;14.37;100.00;97827.56;1223818;75;2926570;-65
2023/09/01 03:44:43;;;;;;;0.90;0.80;;;;;;;14.53;100.00;97828.09;1224111;75;2932794;-65
2023/09/01 03:47:16;;;;;;;0.85;0.80;;;;;;;14.58;100.00;97830.88;1223087;75;2922203;-67
2023/09/01 03:49:48;;;;;;;0.80;0.80;;;;;;;14.52;100.00;97821.81;1223399;75;2923367;-68
2023/09/01 03:52:21;;;;;;;1.20;1.10;;;;;;;14.40;100.00;97832.06;1223623;75;2925196;-64
2023/09/01 03:54:54;;;;;;;1.15;0.90;;;;;;;14.34;100.00;97836.06;1225058;75;2927217;-68
2023/09/01 03:57:29;;;;;;;1.25;1.15;;;;;;;14.49;100.00;97834.59;1224562;75;2916700;-66
2023/09/01 04:00:04;;;;;;;1.10;1.00;;;;;;;14.59;100.00;97835.13;1224508;75;2919877;-69
2023/09/01 04:02:36;;;;;;;1.15;1.00;;;;;;;14.70;100.00;97843.44;1224946;75;2925763;-69
2023/09/01 04:05:10;;;;;;;1.00;0.90;;;;;;;14.67;100.00;97836.16;1225207;75;2922297;-68
2023/09/01 04:07:43;;;;;;;1.00;0.85;;;;;;;14.74;100.00;97837.66;1225020;75;2917906;-68
2023/09/01 04:10:15;;;;;;;0.90;0.70;;;;;;;14.77;100.00;97842.19;1224236;75;2918240;-66
2023/09/01 04:12:50;;;;;;;1.55;0.90;;;;;;;14.66;100.00;97848.44;1225480;75;2922927;-66
2023/09/01 04:15:23;;;;;;;0.80;0.80;;;;;;;14.52;100.00;97862.41;1224982;75;2913736;-67
2023/09/01 04:17:55;;;;;;;1.05;0.95;;;;;;;14.48;100.00;97851.63;1224963;75;2921358;-66
2023/09/01 04:20:28;;;;;;;1.55;1.20;;;;;;;14.48;100.00;97851.63;1224218;75;2918879;-72
2023/09/01 04:23:00;;;;;;;0.90;0.90;;;;;;;14.50;100.00;97862.88;1224874;75;2917654;-65
2023/09/01 04:25:36;;;;;;;1.10;0.95;;;;;;;14.64;100.00;97874.97;1225774;75;2923196;-66
2023/09/01 04:28:11;;;;;;;1.95;1.50;;;;;;;14.51;100.00;97872.66;1224745;75;2920322;-69
2023/09/01 04:30:45;;;;;;;2.25;1.65;;;;;;;14.42;100.00;97870.13;1225347;75;2926374;-66
2023/09/01 04:33:17;;;;;;;2.15;1.55;;;;;;;14.42;100.00;97881.91;1224858;75;2924496;-68
2023/09/01 04:36:01;;;;;;;2.45;2.00;;;;;;;14.40;100.00;97884.41;1224589;75;2922889;-69
2023/09/01 04:38:34;;;;;;;2.20;1.80;;;;;;;14.49;100.00;97873.16;1224924;75;2924201;-69
2023/09/01 04:41:07;;;;;;;1.70;1.50;;;;;;;14.47;100.00;97874.91;1224911;75;2918594;-68
2023/09/01 04:43:42;;;;;;;1.95;1.60;;;;;;;14.66;100.00;97873.22;1224582;75;2920164;-68
2023/09/01 04:46:15;;;;;;;1.95;1.30;;;;;;;14.81;100.00;97867.47;1225182;75;2922331;-69
2023/09/01 04:48:47;;;;;;;1.40;1.30;;;;;;;14.70;100.00;97862.72;1224760;75;2923083;-67
2023/09/01 04:51:20;;;;;;;2.00;1.40;;;;;;;14.74;100.00;97856.94;1224268;75;2927418;-67
2023/09/01 04:53:53;;;;;;;4.75;1.95;;;;;;;14.71;100.00;97841.41;1224761;75;2925122;-67
2023/09/01 04:56:26;;;;;;;1.50;1.25;;;;;;;14.90;100.00;97841.69;1224805;75;2922769;-66
2023/09/01 04:59:01;;;;;;;2.55;1.60;;;;;;;14.89;100.00;97834.69;1224474;75;2938016;-69
2023/09/01 05:01:34;;;;;;;3.00;2.30;;;;;;;14.60;100.00;97839.41;1224922;75;2924524;-68
2023/09/01 05:04:07;;;;;;;3.30;1.90;;;;;;;14.89;100.00;97848.47;1224977;75;2924505;-67
2023/09/01 05:06:40;;;;;;;2.05;1.70;;;;;;;15.08;100.00;97848.69;1224663;75;2924219;-67
2023/09/01 05:09:12;;;;;;;2.70;1.45;;;;;;;14.86;100.00;97850.22;1225360;75;2915655;-67
2023/09/01 05:11:45;;;;;;;1.75;1.40;;;;;;;14.85;100.00;97850.72;1224471;75;2918723;-67
2023/09/01 05:14:20;;;;;;;1.95;1.45;;;;;;;15.11;100.00;97856.00;1224378;75;2927114;-67
2023/09/01 05:16:53;;;;;;;1.30;1.15;;;;;;;15.20;100.00;97850.22;1225075;75;2927730;-67
2023/09/01 05:19:25;;;;;;;1.50;1.40;;;;;;;15.16;100.00;97857.25;1224531;75;2926157;-67
2023/09/01 05:21:58;;;;;;;2.10;1.30;;;;;;;15.25;100.00;97857.75;1224525;75;2920326;-68
2023/09/01 05:24:33;;;;;;;1.25;1.10;;;;;;;15.37;100.00;97854.94;1224829;75;2925579;-68
2023/09/01 05:27:07;;;;;;;1.30;1.20;;;;;;;15.48;100.00;97852.19;1225124;75;2925401;-68
2023/09/01 05:29:42;;;;;;;1.45;1.30;;;;;;;15.56;100.00;97853.16;1224499;75;2921209;-67
2023/09/01 05:32:14;;;;;;;1.95;1.00;;;;;;;15.58;100.00;97861.69;1224357;75;2917770;-68
2023/09/01 05:34:47;;;;;;;1.50;1.30;;;;;;;15.51;100.00;97867.72;1223334;75;2919010;-66
2023/09/01 05:37:20;;;;;;;2.05;1.20;;;;;;;15.72;100.00;97866.22;1224360;75;2923786;-68
2023/09/01 05:39:52;;;;;;;1.45;0.90;;;;;;;15.76;100.00;97869.47;1226106;75;2926069;-67
2023/09/01 05:42:25;;;;;;;4.30;1.80;;;;;;;15.55;100.00;97874.50;1224354;75;2942437;-68
2023/09/01 05:45:00;;;;;;;1.90;1.70;;;;;;;15.75;100.00;97879.03;1225021;75;2919023;-67
2023/09/01 05:47:32;;;;;;;3.50;2.10;;;;;;;15.64;100.00;97881.03;1224449;75;2920043;-67
2023/09/01 05:50:06;;;;;;;3.70;2.25;;;;;;;15.38;100.00;97881.31;1224752;75;2919728;-67
2023/09/01 05:52:39;;;;;;;4.30;3.10;;;;;;;15.21;100.00;97879.28;1224569;75;2926790;-70
2023/09/01 05:55:13;;;;;;;4.00;2.75;;;;;;;15.25;100.00;97879.03;1225052;75;2921124;-66
2023/09/01 05:57:45;;;;;;;3.55;2.50;;;;;;;15.37;100.00;97886.06;1223982;75;2919947;-70
2023/09/01 06:00:23;;;;;;;3.55;2.40;;;;;;;15.58;100.00;97877.50;1224116;75;2917882;-67
2023/09/01 06:02:55;;;;;;;3.25;2.20;;;;;;;15.66;100.00;97870.22;1225859;75;2922075;-68
2023/09/01 06:05:28;;;;;;;1.95;1.70;;;;;;;15.82;100.00;97872.19;1224757;75;2924839;-67
2023/09/01 06:08:01;;;;;;;1.80;1.50;;;;;;;16.07;100.00;97873.16;1224244;75;2917234;-67
2023/09/01 06:10:35;;;;;;;2.30;1.95;;;;;;;15.91;100.00;97885.75;1224958;75;2916729;-69
2023/09/01 06:13:08;;;;;;;2.45;1.90;;;;;;;15.87;100.00;97879.72;1224224;75;2923484;-68
2023/09/01 06:15:43;;;;;;;4.20;2.30;;;;;;;15.90;100.00;97891.78;1223857;75;2924139;-67
2023/09/01 06:18:15;;;;;;;3.65;2.75;;;;;;;15.75;100.00;97881.00;1224590;75;2916847;-69
2023/09/01 06:20:48;;;;;;;4.15;2.55;;;;;;;15.77;100.00;97873.72;1224172;75;2922456;-69
2023/09/01 06:23:20;;;;;;;3.75;2.20;;;;;;;16.07;100.00;97875.91;1224574;75;2924935;-68
2023/09/01 06:25:53;;;;;;;4.90;3.50;;;;;;;16.20;100.00;97872.59;1224834;75;2920093;-65
2023/09/01 06:28:26;;;;;;;5.20;3.90;;;;;;;16.22;100.00;97872.84;1225496;75;2922672;-64
2023/09/01 06:31:01;;;;;;;3.45;2.25;;;;;;;16.16;100.00;97863.81;1224927;75;2922528;-64
2023/09/01 06:33:34;;;;;;;3.15;2.30;;;;;;;16.25;100.00;97873.81;1224059;75;2918723;-69
2023/09/01 06:36:07;;;;;;;3.30;2.50;;;;;;;16.15;100.00;97879.63;1225154;75;2927675;-64
2023/09/01 06:38:40;;;;;;;2.45;2.00;;;;;;;16.36;100.00;97885.56;1224194;75;2921857;-68
2023/09/01 06:41:13;;;;;;;4.10;2.60;;;;;;;16.58;100.00;97890.22;1224887;75;2919407;-67
2023/09/01 06:43:45;;;;;;;3.75;2.90;;;;;;;16.75;100.00;97895.66;1225169;75;2926121;-65
2023/09/01 06:46:20;;;;;;;4.85;3.70;;;;;;;16.71;100.00;97888.91;1224259;75;2925129;-65
2023/09/01 06:48:53;;;;;;;4.60;3.85;;;;;;;17.06;100.00;97890.22;1224672;75;2922986;-68
2023/09/01 06:51:25;;;;;;;4.05;3.10;;;;;;;16.89;100.00;97880.03;1224290;75;2922707;-67
2023/09/01 06:53:58;;;;;;;3.35;2.40;;;;;;;17.38;100.00;97880.13;1224048;75;2922323;-68
2023/09/01 06:56:31;;;;;;;3.00;2.10;;;;;;;17.72;100.00;97877.03;1224217;75;2924383;-68
2023/09/01 06:59:03;;;;;;;3.50;3.05;;;;;;;17.37;100.00;97881.41;1223974;75;2920829;-70
2023/09/01 07:01:38;;;;;;;7.20;5.15;;;;;;;17.62;100.00;97881.44;1224668;75;2921806;-68
2023/09/01 07:04:11;;;;;;;5.05;4.30;;;;;;;17.62;100.00;97881.44;1224669;75;2928436;-66
2023/09/01 07:06:43;;;;;;;6.20;3.80;;;;;;;17.59;100.00;97882.47;1224738;75;2920476;-70
2023/09/01 07:09:16;;;;;;;4.65;3.00;;;;;;;17.61;100.00;97891.03;1225121;75;2924838;-68
2023/09/01 07:11:48;;;;;;;3.60;2.85;;;;;;;18.07;100.00;97900.38;1224223;75;2920540;-67
2023/09/01 07:14:21;;;;;;;4.20;3.20;;;;;;;17.92;100.00;97889.72;1224699;75;2920652;-67
2023/09/01 07:16:57;;;;;;;4.90;3.70;;;;;;;18.31;100.00;97896.81;1223964;75;2923628;-66
2023/09/01 07:19:29;;;;;;;6.40;5.10;;;;;;;18.46;100.00;97894.34;1223840;75;2927026;-67
2023/09/01 07:22:03;;;;;;;5.70;3.90;;;;;;;18.30;100.00;97895.31;1224406;75;2926777;-70
2023/09/01 07:24:35;;;;;;;6.60;3.40;;;;;;;18.71;100.00;97888.72;1225197;75;2925797;-68
2023/09/01 07:27:09;;;;;;;6.45;4.05;;;;;;;18.64;100.00;97892.88;1223759;75;2924932;-69
2023/09/01 07:29:41;;;;;;;18.00;11.95;;;;;;;19.27;100.00;97890.69;1224295;75;2926027;-68
2023/09/01 07:32:17;;;;;;;10.95;8.45;;;;;;;19.76;100.00;97893.16;1224017;75;2920039;-66
2023/09/01 07:34:50;;;;;;;7.20;4.90;;;;;;;20.05;100.00;97900.97;1223765;75;2927206;-69
2023/09/01 07:37:23;;;;;;;6.40;3.75;;;;;;;19.50;100.00;97898.63;1222972;75;2922561;-70
2023/09/01 07:39:56;;;;;;;4.15;3.10;;;;;;;19.99;100.00;97896.28;1224731;75;2924267;-66
2023/09/01 07:42:28;;;;;;;6.65;3.50;;;;;;;20.11;100.00;97898.84;1224717;75;2931024;-66
2023/09/01 07:45:01;;;;;;;4.65;3.20;;;;;;;19.39;100.00;97901.63;1224482;75;2925251;-67
2023/09/01 07:47:37;;;;;;;4.45;3.00;;;;;;;19.63;100.00;97906.25;1224323;75;2930101;-67
2023/09/01 07:50:11;;;;;;;4.50;3.40;;;;;;;19.66;100.00;97900.38;1224416;75;2922940;-66
2023/09/01 07:52:44;;;;;;;14.15;11.60;;;;;;;19.88;100.00;97904.81;1224919;75;2921669;-70
2023/09/01 07:55:16;;;;;;;5.10;3.70;;;;;;;20.02;100.00;97891.66;1224754;75;2922052;-69
2023/09/01 07:57:49;;;;;;;6.35;3.75;;;;;;;19.86;100.00;97901.81;1225838;75;2921384;-69
2023/09/01 08:00:22;;;;;;;4.65;3.10;;;;;;;20.35;100.00;97909.72;1226065;75;2922740;-68
2023/09/01 08:02:58;;;;;;;6.25;3.10;;;;;;;20.50;100.00;97898.03;1225519;75;2918664;-67
2023/09/01 08:05:30;;;;;;;5.65;3.90;;;;;;;19.85;100.00;97903.09;1225676;75;2923741;-68
2023/09/01 08:08:03;;;;;;;5.80;4.20;;;;;;;20.17;100.00;97905.75;1226226;75;2915099;-68
2023/09/01 08:10:36;;;;;;;4.45;3.65;;;;;;;20.12;100.00;97903.09;1226760;75;2920513;-68
2023/09/01 08:13:08;;;;;;;5.95;3.85;;;;;;;20.00;100.00;97910.91;1226353;75;2923932;-70
2023/09/01 08:15:41;;;;;;;6.20;4.05;;;;;;;19.67;100.00;97909.47;1225003;75;2925680;-66
2023/09/01 08:18:16;;;;;;;5.20;3.75;;;;;;;19.90;100.00;97910.59;1225908;75;2913615;-68
2023/09/01 08:20:50;;;;;;;3.80;3.00;;;;;;;20.39;100.00;97901.78;1223206;75;2999503;-69
2023/09/01 08:23:23;;;;;;;6.45;4.40;;;;;;;20.43;100.00;97907.78;1225871;75;2915795;-70
2023/09/01 08:25:55;;;;;;;5.15;2.80;;;;;;;20.95;98.13;97899.09;1225155;75;2932051;-68
2023/09/01 08:28:28;;;;;;;7.15;2.90;;;;;;;20.82;100.00;97905.47;1224208;75;2919081;-69
2023/09/01 08:31:04;;;;;;;4.95;3.35;;;;;;;20.97;100.00;97900.06;1225686;75;2922035;-67
2023/09/01 08:33:40;;;;;;;6.40;3.80;;;;;;;20.32;100.00;97907.25;1223412;75;2919900;-71
2023/09/01 08:36:12;;;;;;;7.05;3.40;;;;;;;20.47;100.00;97901.13;1224233;75;2920573;-68
2023/09/01 08:38:45;;;;;;;4.15;3.00;;;;;;;20.94;100.00;97900.41;1224210;75;2928828;-70
2023/09/01 08:41:18;;;;;;;11.00;3.95;;;;;;;20.50;100.00;97903.59;1223754;75;2922313;-67
2023/09/01 08:43:54;;;;;;;4.30;2.95;;;;;;;21.06;98.62;97899.59;1223750;75;2946815;-69
2023/09/01 08:46:28;;;;;;;5.80;3.30;;;;;;;20.58;100.00;97906.50;1224801;75;2910577;-68
2023/09/01 08:49:05;;;;;;;4.45;2.75;;;;;;;21.01;98.55;97908.06;1224598;75;2932696;-68
2023/09/01 08:51:42;;;;;;;4.80;2.90;;;;;;;21.18;100.00;97894.50;1224207;75;2920357;-67
2023/09/01 08:54:16;;;;;;;3.30;2.50;;;;;;;21.36;94.72;97909.53;1223376;75;2920871;-68
2023/09/01 08:56:48;;;;;;;4.20;2.40;;;;;;;21.61;92.86;97896.00;1224915;75;2917774;-69
2023/09/01 08:59:21;;;;;;;4.40;3.10;;;;;;;21.24;91.39;97903.47;1224934;67;2921866;-68
2023/09/01 09:01:53;;;;;;;5.85;2.65;;;;;;;21.13;91.34;97909.31;1224603;75;2923842;-67
2023/09/01 09:04:29;;;;;;;3.80;2.30;;;;;;;21.69;88.28;97902.41;1224703;75;2933176;-68
2023/09/01 09:07:16;;;;;;;5.10;2.40;;;;;;;21.40;82.11;97889.69;1225222;75;2924583;-69
2023/09/01 09:10:08;;;;;;;2.50;1.90;;;;;;;22.42;76.25;97894.09;1224931;75;2922112;-68
2023/09/01 09:12:43;;;;;;;3.00;1.80;;;;;;;23.03;75.09;97884.44;1224712;75;2924972;-69
2023/09/01 09:15:21;;;;;;;2.95;2.00;;;;;;;22.46;75.27;97897.25;1225748;75;2912852;-66
2023/09/01 09:17:54;;;;;;;2.60;1.70;;;;;;;22.99;70.19;97884.78;1225801;75;2917689;-72
2023/09/01 09:20:41;;;;;;;2.50;1.80;;;;;;;22.95;71.78;97890.72;1225238;75;2918933;-66
2023/09/01 09:23:13;;;;;;;2.45;1.65;;;;;;;23.93;70.18;97893.38;1224489;75;2926109;-69
2023/09/01 09:25:46;;;;;;;2.95;1.80;;;;;;;23.98;69.19;97884.06;1225183;75;2923699;-68
2023/09/01 09:28:19;;;;;;;2.80;1.95;;;;;;;23.51;70.97;97887.44;1225313;75;2919743;-67
2023/09/01 09:30:55;;;;;;;2.05;1.35;;;;;;;23.85;69.48;97889.09;1225647;75;2923233;-68
2023/09/01 09:33:32;;;;;;;2.60;1.70;;;;;;;23.80;66.45;97894.31;1224919;75;2924486;-68
2023/09/01 09:36:07;;;;;;;3.00;1.55;;;;;;;24.08;65.66;97891.88;1225794;75;2920065;-68
2023/09/01 09:38:43;;;;;;;2.95;1.70;;;;;;;24.20;65.49;97888.09;1224977;75;2922660;-71
2023/09/01 09:41:17;;;;;;;5.15;1.70;;;;;;;23.62;64.80;97889.84;1225233;75;2926929;-69
2023/09/01 09:43:52;;;;;;;2.30;1.20;;;;;;;24.56;63.90;97883.50;1225543;75;2925974;-70
2023/09/01 09:46:25;;;;;;;3.35;1.60;;;;;;;24.29;63.87;97883.94;1224680;75;2917060;-69
2023/09/01 09:48:59;;;;;;;3.05;1.60;;;;;;;24.92;62.75;97885.16;1224269;75;2921066;-69
2023/09/01 09:51:34;;;;;;;2.15;1.30;;;;;;;25.00;63.28;97885.88;1224880;75;2920156;-67
2023/09/01 09:54:10;;;;;;;2.95;1.50;;;;;;;24.48;62.14;97880.72;1225403;75;2919548;-69
2023/09/01 09:56:44;;;;;;;3.10;1.40;;;;;;;24.35;63.19;97878.16;1225512;75;2917701;-69
2023/09/01 09:59:19;;;;;;;2.20;1.30;;;;;;;24.44;61.66;97877.56;1225153;75;2919554;-70
2023/09/01 10:01:52;;;;;;;4.30;1.45;;;;;;;25.40;60.96;97885.81;1225460;75;2926678;-69
2023/09/01 10:04:26;;;;;;;3.20;1.55;;;;;;;24.76;60.52;97878.94;1224793;75;2922611;-67
2023/09/01 10:07:02;;;;;;;2.35;1.40;;;;;;;24.49;62.16;97881.50;1224484;75;2912104;-70
2023/09/01 10:09:36;;;;;;;1.95;1.45;;;;;;;25.65;61.40;97871.00;1224473;75;2922042;-68
2023/09/01 10:12:10;;;;;;;2.90;1.35;;;;;;;25.60;59.15;97875.53;1222363;75;2948425;-69
2023/09/01 10:14:44;;;;;;;2.10;1.60;;;;;;;25.29;59.83;97875.78;1225523;75;2920689;-67
2023/09/01 10:17:18;;;;;;;2.60;1.50;;;;;;;24.97;60.37;97887.03;1224722;75;2919706;-69
2023/09/01 10:19:51;;;;;;;2.45;1.30;;;;;;;26.04;57.50;97879.81;1225242;75;2922230;-69
2023/09/01 10:22:27;;;;;;;1.95;1.20;;;;;;;26.04;57.67;97874.94;1223725;75;2927383;-69
2023/09/01 10:25:18;;;;;;;1.20;1.10;;;;;;;26.61;56.09;97869.63;1223070;75;2958716;-71
2023/09/01 10:28:07;;;;;;;1.30;1.10;;;;;;;25.48;58.53;97874.53;1224984;75;2920640;-70
2023/09/01 10:30:42;;;;;;;1.85;1.10;;;;;;;26.75;55.23;97870.75;1224900;75;2920894;-68
2023/09/01 10:33:18;;;;;;;1.55;1.00;;;;;;;25.80;56.83;97867.31;1225321;75;2918153;-69
2023/09/01 10:35:53;;;;;;;2.85;1.55;;;;;;;25.27;58.47;97863.66;1223321;75;3003873;-68
2023/09/01 10:38:41;;;;;;;2.75;1.35;;;;;;;27.41;55.10;97862.47;1223889;75;2913557;-69
2023/09/01 10:41:14;;;;;;;1.35;0.80;;;;;;;27.45;54.04;97862.78;1225630;75;2922926;-68
2023/09/01 10:43:56;;;;;;;2.15;1.00;;;;;;;26.62;55.89;97859.88;1224687;75;2926415;-67
2023/09/01 10:46:32;;;;;;;1.20;0.90;;;;;;;27.13;53.87;97858.94;1224806;75;2925607;-71
2023/09/01 10:49:07;;;;;;;2.50;1.30;;;;;;;25.84;56.92;97862.03;1224784;75;2921413;-69
2023/09/01 10:51:40;;;;;;;2.15;1.35;;;;;;;26.05;57.00;97862.41;1223956;75;2925305;-68
2023/09/01 10:54:45;;;;;;;1.40;0.90;;;;;;;26.30;56.12;97858.75;1225171;75;2927059;-70
2023/09/01 10:57:18;;;;;;;1.40;1.10;;;;;;;26.29;59.43;97858.00;1224309;75;2921624;-69
2023/09/01 10:59:51;;;;;;;1.70;1.15;;;;;;;26.85;56.66;97860.31;1224724;75;2928374;-73
2023/09/01 11:02:28;;;;;;;1.20;1.10;;;;;;;26.32;58.77;97864.53;1225070;75;2919594;-68
2023/09/01 11:05:01;;;;;;;1.40;1.30;;;;;;;25.95;58.40;97860.81;1224707;75;2922512;-69
2023/09/01 11:07:34;;;;;;;2.65;1.10;;;;;;;27.46;56.08;97861.44;1225280;75;2914103;-69
2023/09/01 11:10:10;;;;;;;1.45;1.15;;;;;;;27.01;56.86;97860.81;1224994;75;2922129;-69
2023/09/01 11:12:42;;;;;;;1.25;1.00;;;;;;;27.29;55.30;97861.53;1226570;75;2909226;-70
2023/09/01 11:15:15;;;;;;;1.40;0.85;;;;;;;27.31;53.99;97856.81;1224126;75;2914439;-68
2023/09/01 11:17:49;;;;;;;2.15;0.95;;;;;;;26.82;56.41;97855.09;1223259;75;2925776;-71
2023/09/01 11:20:22;;;;;;;1.00;0.90;;;;;;;26.45;58.10;97846.59;1224916;75;2918125;-68
2023/09/01 11:22:55;;;;;;;1.70;1.10;;;;;;;27.75;54.81;97846.69;1226166;75;2915589;-71
2023/09/01 11:25:30;;;;;;;2.25;1.05;;;;;;;27.61;54.03;97838.69;1224476;75;2923952;-67
2023/09/01 11:28:02;;;;;;;1.45;0.90;;;;;;;27.55;54.18;97843.84;1225129;75;2916991;-69
2023/09/01 11:30:35;;;;;;;1.90;1.00;;;;;;;26.87;54.49;97835.19;1224696;75;2920520;-69
2023/09/01 11:33:17;;;;;;;1.90;1.00;;;;;;;27.52;53.07;97833.78;1224625;75;2921387;-71
2023/09/01 11:35:49;;;;;;;1.10;0.80;;;;;;;27.96;52.31;97832.81;1224270;75;2921827;-69
2023/09/01 11:38:23;;;;;;;0.80;0.80;;;;;;;28.99;50.00;97826.69;1225065;75;2927334;-70
2023/09/01 11:40:58;;;;;;;3.50;1.50;;;;;;;28.02;50.48;97827.63;1225173;75;2916893;-66
2023/09/01 11:43:31;;;;;;;1.30;1.10;;;;;;;27.55;52.09;97821.34;1225230;75;2918855;-68